createdAt,value
2022-11-21T00:01:35.021Z,9.07
2022-11-21T00:04:02.079Z,9.43
2022-11-21T00:06:29.268Z,8.60
2022-11-21T00:08:56.858Z,9.45
2022-11-21T00:11:44.303Z,10.15
2022-11-21T00:14:11.317Z,9.15
2022-11-21T00:16:38.249Z,8.15
2022-11-21T00:19:05.199Z,9.52
2022-11-21T00:21:32.544Z,10.00
2022-11-21T00:24:01.392Z,10.15
2022-11-21T00:26:28.641Z,9.50
2022-11-21T00:28:55.745Z,9.95
2022-11-21T00:31:24.415Z,8.93
2022-11-21T00:34:12.931Z,8.95
2022-11-21T00:37:33.881Z,9.52
2022-11-21T00:40:05.776Z,9.70
2022-11-21T00:42:34.130Z,9.52
2022-11-21T00:45:03.009Z,10.68
2022-11-21T00:47:30.386Z,10.52
2022-11-21T00:49:57.487Z,10.30
2022-11-21T00:52:27.786Z,11.20
2022-11-21T00:54:59.677Z,11.15
2022-11-21T00:57:27.012Z,12.45
2022-11-21T00:59:57.721Z,11.75
2022-11-21T01:02:24.911Z,11.07
2022-11-21T01:04:54.613Z,11.98
2022-11-21T01:07:22.703Z,12.13
2022-11-21T01:09:49.743Z,11.30
2022-11-21T01:12:19.882Z,11.32
2022-11-21T01:14:46.919Z,11.25
2022-11-21T01:17:13.990Z,11.57
2022-11-21T01:19:58.271Z,12.63
2022-11-21T01:22:46.724Z,11.25
2022-11-21T01:25:13.712Z,12.60
2022-11-21T01:27:40.696Z,10.88
2022-11-21T01:30:09.695Z,9.88
2022-11-21T01:32:36.643Z,10.27
2022-11-21T01:35:03.560Z,10.60
2022-11-21T01:37:30.985Z,10.15
2022-11-21T01:40:01.268Z,10.38
2022-11-21T01:42:38.213Z,11.70
2022-11-21T01:45:44.433Z,12.45
2022-11-21T01:48:11.803Z,12.30
2022-11-21T01:50:38.712Z,13.02
2022-11-21T01:53:06.461Z,13.00
2022-11-21T01:55:34.872Z,13.25
2022-11-21T01:58:02.585Z,12.32
2022-11-21T02:00:36.811Z,11.93
2022-11-21T02:03:10.650Z,11.10
2022-11-21T02:05:39.831Z,11.90
2022-11-21T02:08:11.168Z,12.45
2022-11-21T02:10:44.600Z,13.18
2022-11-21T02:13:12.655Z,13.82
2022-11-21T02:15:40.993Z,12.32
2022-11-21T02:18:20.426Z,12.60
2022-11-21T02:21:25.841Z,12.35
2022-11-21T02:24:14.449Z,9.85
2022-11-21T02:26:51.788Z,10.98
2022-11-21T02:29:18.876Z,11.60
2022-11-21T02:31:45.954Z,10.35
2022-11-21T02:34:12.995Z,11.50
2022-11-21T02:36:46.638Z,11.93
2022-11-21T02:39:23.441Z,12.20
2022-11-21T02:42:02.385Z,11.27
2022-11-21T02:44:45.116Z,12.50
2022-11-21T02:47:14.763Z,12.63
2022-11-21T02:50:10.530Z,11.20
2022-11-21T02:52:37.664Z,12.93
2022-11-21T02:55:05.547Z,13.30
2022-11-21T02:57:33.051Z,12.27
2022-11-21T03:00:00.351Z,12.23
2022-11-21T03:02:27.399Z,12.60
2022-11-21T03:04:54.470Z,14.15
2022-11-21T03:07:28.172Z,12.18
2022-11-21T03:09:55.229Z,12.60
2022-11-21T03:12:23.884Z,11.77
2022-11-21T03:14:52.028Z,12.45
2022-11-21T03:17:26.474Z,13.98
2022-11-21T03:19:53.611Z,11.57
2022-11-21T03:22:20.867Z,12.07
2022-11-21T03:24:47.767Z,13.20
2022-11-21T03:27:14.773Z,12.43
2022-11-21T03:29:41.887Z,13.07
2022-11-21T03:32:08.902Z,13.10
2022-11-21T03:34:36.214Z,12.90
2022-11-21T03:37:03.495Z,12.85
2022-11-21T03:39:31.101Z,13.00
2022-11-21T03:41:58.014Z,13.85
2022-11-21T03:44:25.601Z,13.02
2022-11-21T03:46:52.916Z,11.95
2022-11-21T03:49:20.058Z,13.15
2022-11-21T03:51:47.249Z,13.05
2022-11-21T03:54:14.212Z,13.07
2022-11-21T03:56:41.149Z,13.32
2022-11-21T03:59:08.245Z,13.27
2022-11-21T04:01:36.837Z,13.45
2022-11-21T04:04:04.964Z,12.70
2022-11-21T04:06:31.931Z,12.85
2022-11-21T04:08:58.897Z,12.73
2022-11-21T04:11:25.934Z,11.95
2022-11-21T04:13:53.042Z,12.25
2022-11-21T04:16:20.343Z,11.65
2022-11-21T04:18:47.544Z,13.52
2022-11-21T04:21:15.503Z,12.85
2022-11-21T04:23:42.530Z,13.20
2022-11-21T04:26:09.624Z,12.57
2022-11-21T04:28:36.524Z,12.70
2022-11-21T04:31:10.746Z,13.25
2022-11-21T04:33:40.137Z,13.10
2022-11-21T04:36:09.505Z,13.07
2022-11-21T04:38:37.143Z,12.90
2022-11-21T04:41:05.021Z,13.57
2022-11-21T04:43:33.101Z,13.13
2022-11-21T04:46:00.586Z,12.88
2022-11-21T04:48:28.255Z,13.27
2022-11-21T04:50:55.300Z,13.68
2022-11-21T04:53:22.283Z,12.98
2022-11-21T04:55:49.199Z,13.73
2022-11-21T04:58:16.229Z,14.45
2022-11-21T05:00:43.158Z,15.05
2022-11-21T05:03:10.838Z,14.57
2022-11-21T05:05:38.028Z,12.80
2022-11-21T05:08:05.265Z,13.80
2022-11-21T05:10:52.223Z,12.32
2022-11-21T05:13:21.917Z,13.57
2022-11-21T05:15:51.773Z,13.27
2022-11-21T05:18:20.055Z,13.27
2022-11-21T05:20:47.145Z,14.13
2022-11-21T05:23:14.222Z,13.70
2022-11-21T05:25:41.290Z,13.52
2022-11-21T05:28:08.213Z,13.40
2022-11-21T05:30:35.312Z,13.65
2022-11-21T05:33:02.823Z,13.50
2022-11-21T05:35:29.886Z,13.85
2022-11-21T05:38:00.062Z,14.00
2022-11-21T05:40:27.912Z,14.32
2022-11-21T05:43:13.702Z,14.63
2022-11-21T05:45:40.795Z,12.27
2022-11-21T05:48:08.052Z,13.95
2022-11-21T05:50:36.347Z,13.10
2022-11-21T05:53:06.592Z,13.68
2022-11-21T05:55:37.023Z,14.32
2022-11-21T05:58:05.232Z,13.48
2022-11-21T06:00:33.311Z,14.82
2022-11-21T06:03:18.873Z,14.95
2022-11-21T06:05:45.751Z,13.90
2022-11-21T06:08:12.796Z,15.77
2022-11-21T06:10:39.850Z,13.98
2022-11-21T06:13:22.273Z,12.82
2022-11-21T06:16:00.860Z,14.27
2022-11-21T06:18:29.058Z,13.40
2022-11-21T06:21:04.651Z,13.68
2022-11-21T06:23:32.073Z,13.88
2022-11-21T06:26:00.801Z,14.05
2022-11-21T06:28:34.108Z,14.05
2022-11-21T06:31:11.521Z,13.73
2022-11-21T06:33:39.420Z,14.40
2022-11-21T06:36:15.202Z,15.98
2022-11-21T06:38:43.505Z,16.02
2022-11-21T06:41:19.356Z,15.75
2022-11-21T06:43:46.947Z,14.88
2022-11-21T06:46:15.339Z,14.88
2022-11-21T06:48:43.524Z,14.82
2022-11-21T06:51:17.675Z,14.57
2022-11-21T06:53:45.320Z,13.48
2022-11-21T06:56:12.457Z,14.15
2022-11-21T06:58:39.590Z,12.57
2022-11-21T07:01:09.588Z,13.98
2022-11-21T07:03:37.421Z,13.70
2022-11-21T07:06:04.978Z,12.05
2022-11-21T07:08:33.640Z,12.32
2022-11-21T07:13:53.590Z,13.82
2022-11-21T07:16:20.614Z,13.05
2022-11-21T07:18:47.754Z,14.27
2022-11-21T07:21:14.931Z,13.35
2022-11-21T07:23:42.224Z,12.68
2022-11-21T07:26:10.811Z,13.73
2022-11-21T07:28:38.242Z,13.68
2022-11-21T07:31:11.739Z,13.98
2022-11-21T07:33:40.773Z,14.25
2022-11-21T07:36:08.195Z,14.27
2022-11-21T07:38:35.262Z,14.15
2022-11-21T07:41:02.627Z,13.98
2022-11-21T07:43:29.777Z,14.45
2022-11-21T07:45:58.146Z,13.73
2022-11-21T07:48:26.428Z,13.98
2022-11-21T07:50:55.348Z,15.13
2022-11-21T07:53:22.611Z,15.52
2022-11-21T07:55:49.790Z,15.50
2022-11-21T07:58:17.694Z,13.80
2022-11-21T08:00:44.842Z,14.98
2022-11-21T08:03:13.244Z,15.05
2022-11-21T08:05:42.426Z,15.98
2022-11-21T08:08:11.646Z,14.18
2022-11-21T08:10:40.981Z,14.90
2022-11-21T08:13:08.107Z,13.23
2022-11-21T08:15:35.772Z,14.40
2022-11-21T08:18:20.458Z,13.65
2022-11-21T08:20:47.833Z,13.85
2022-11-21T08:23:15.026Z,15.02
2022-11-21T08:25:43.268Z,17.13
2022-11-21T08:28:11.791Z,15.27
2022-11-21T08:30:40.430Z,14.80
2022-11-21T08:33:08.054Z,14.35
2022-11-21T08:35:40.057Z,14.10
2022-11-21T08:38:07.020Z,13.70
2022-11-21T08:40:35.325Z,14.65
2022-11-21T08:43:08.245Z,14.25
2022-11-21T08:45:37.148Z,14.35
2022-11-21T08:48:04.714Z,13.05
2022-11-21T08:50:32.218Z,12.65
2022-11-21T08:53:03.101Z,12.18
2022-11-21T08:55:31.219Z,12.10
2022-11-21T08:57:58.989Z,11.68
2022-11-21T09:00:27.044Z,12.40
2022-11-21T09:02:54.285Z,12.30
2022-11-21T09:05:22.371Z,12.20
2022-11-21T09:07:55.709Z,11.88
2022-11-21T09:10:22.793Z,12.18
2022-11-21T09:12:50.669Z,11.57
2022-11-21T09:15:36.466Z,10.40
2022-11-21T09:18:04.609Z,11.30
2022-11-21T09:20:34.394Z,11.98
2022-11-21T09:23:08.311Z,12.35
2022-11-21T09:25:35.343Z,12.13
2022-11-21T09:28:07.113Z,11.15
2022-11-21T09:30:34.499Z,11.93
2022-11-21T09:33:06.372Z,12.13
2022-11-21T09:35:33.429Z,12.02
2022-11-21T09:38:00.584Z,11.73
2022-11-21T09:40:30.427Z,11.02
2022-11-21T09:43:13.971Z,10.73
2022-11-21T09:45:55.950Z,9.63
2022-11-21T09:48:33.243Z,10.00
2022-11-21T09:51:14.763Z,11.13
2022-11-21T09:54:03.968Z,10.85
2022-11-21T09:56:35.392Z,10.32
2022-11-21T09:59:12.265Z,17.17
2022-11-21T10:01:39.796Z,16.92
2022-11-21T10:04:06.761Z,14.70
2022-11-21T10:06:58.031Z,15.60
2022-11-21T10:09:31.075Z,14.73
2022-11-21T10:12:30.807Z,13.52
2022-11-21T10:15:04.812Z,13.15
2022-11-21T10:17:34.975Z,16.95
2022-11-21T10:20:29.805Z,15.75
2022-11-21T10:23:20.916Z,15.90
2022-11-21T10:25:59.800Z,14.20
2022-11-21T10:28:40.965Z,14.73
2022-11-21T10:31:13.843Z,13.48
2022-11-21T10:33:41.938Z,12.55
2022-11-21T10:36:39.704Z,12.25
2022-11-21T10:39:20.697Z,11.95
2022-11-21T10:41:58.692Z,12.50
2022-11-21T10:44:46.654Z,11.18
2022-11-21T10:47:28.094Z,10.50
2022-11-21T10:50:07.959Z,11.93
2022-11-21T10:52:50.804Z,12.75
2022-11-21T10:55:18.825Z,11.05
2022-11-21T10:57:47.181Z,11.18
2022-11-21T11:00:15.981Z,9.85
2022-11-21T11:03:10.381Z,8.77
2022-11-21T11:05:39.000Z,10.20
2022-11-21T11:08:14.517Z,9.55
2022-11-21T11:11:12.794Z,7.88
2022-11-21T11:13:57.367Z,9.27
2022-11-21T11:16:26.280Z,10.23
2022-11-21T11:19:09.505Z,10.40
2022-11-21T11:21:39.641Z,10.52
2022-11-21T11:24:10.803Z,10.05
2022-11-21T11:26:48.535Z,9.68
2022-11-21T11:29:24.905Z,10.23
2022-11-21T11:32:27.436Z,9.80
2022-11-21T11:34:54.440Z,8.63
2022-11-21T11:37:34.515Z,8.70
2022-11-21T11:40:41.790Z,8.65
2022-11-21T11:43:47.873Z,7.93
2022-11-21T11:47:26.187Z,8.98
2022-11-21T11:50:12.210Z,8.93
2022-11-21T11:52:39.172Z,8.80
2022-11-21T11:55:14.720Z,9.70
2022-11-21T11:57:43.009Z,9.93
2022-11-21T12:00:16.316Z,9.60
2022-11-21T12:03:00.210Z,9.13
2022-11-21T12:05:30.220Z,10.02
2022-11-21T12:08:42.758Z,8.73
2022-11-21T12:11:52.183Z,8.32
2022-11-21T12:14:47.129Z,8.48
2022-11-21T12:17:17.591Z,8.15
2022-11-21T12:19:44.738Z,8.75
2022-11-21T12:22:12.060Z,17.27
2022-11-21T12:24:42.955Z,13.57
2022-11-21T12:27:37.102Z,9.90
2022-11-21T12:30:14.798Z,8.73
2022-11-21T12:33:08.471Z,9.52
2022-11-21T12:36:16.861Z,9.48
2022-11-21T12:38:50.544Z,7.70
2022-11-21T12:41:46.042Z,6.38
2022-11-21T12:44:30.095Z,9.55
2022-11-21T12:47:09.079Z,6.50
2022-11-21T12:50:31.790Z,5.00
2022-11-21T12:53:32.225Z,5.53
2022-11-21T12:56:10.272Z,5.25
2022-11-21T12:58:48.058Z,5.90
2022-11-21T13:01:22.005Z,6.78
2022-11-21T13:04:06.054Z,6.45
2022-11-21T13:06:40.528Z,6.03
2022-11-21T13:09:19.372Z,5.95
2022-11-21T13:12:01.488Z,10.07
2022-11-21T13:14:36.600Z,8.15
2022-11-21T13:17:22.355Z,11.02
2022-11-21T13:19:59.006Z,13.02
2022-11-21T13:22:49.258Z,8.43
2022-11-21T13:25:47.922Z,9.55
2022-11-21T13:28:18.586Z,6.70
2022-11-21T13:30:57.059Z,5.95
2022-11-21T13:33:37.084Z,5.88
2022-11-21T13:36:33.961Z,6.45
2022-11-21T13:41:52.922Z,6.03
2022-11-21T13:44:40.744Z,6.55
2022-11-21T13:47:26.160Z,5.90
2022-11-21T13:49:59.441Z,6.45
2022-11-21T13:52:43.597Z,6.47
2022-11-21T13:55:49.624Z,5.88
2022-11-21T13:58:22.630Z,6.50
2022-11-21T14:01:17.146Z,6.13
2022-11-21T14:03:57.501Z,7.30
2022-11-21T14:06:36.600Z,7.30
2022-11-21T14:09:12.707Z,7.43
2022-11-21T14:12:33.093Z,6.93
2022-11-21T14:15:04.115Z,6.70
2022-11-21T14:17:57.578Z,6.82
2022-11-21T14:20:26.539Z,7.45
2022-11-21T14:22:55.001Z,7.00
2022-11-21T14:25:36.575Z,6.90
2022-11-21T14:28:06.867Z,6.80
2022-11-21T14:30:42.474Z,6.75
2022-11-21T14:33:29.187Z,7.10
2022-11-21T14:38:30.618Z,7.80
2022-11-21T14:41:22.974Z,6.70
2022-11-21T14:44:03.438Z,6.88
2022-11-21T14:46:33.190Z,6.35
2022-11-21T14:49:16.074Z,6.13
2022-11-21T14:52:01.197Z,6.40
2022-11-21T14:54:38.996Z,6.07
2022-11-21T14:57:17.036Z,10.23
2022-11-21T14:59:45.010Z,9.05
2022-11-21T15:02:19.412Z,6.88
2022-11-21T15:04:48.744Z,7.90
2022-11-21T15:07:25.678Z,9.20
2022-11-21T15:12:45.967Z,8.00
2022-11-21T15:15:38.617Z,7.05
2022-11-21T15:18:29.153Z,6.28
2022-11-21T15:21:00.174Z,6.50
2022-11-21T15:23:30.641Z,6.50
2022-11-21T15:26:01.485Z,6.53
2022-11-21T15:28:30.841Z,6.53
2022-11-21T15:31:20.592Z,5.47
2022-11-21T15:34:34.950Z,6.60
2022-11-21T15:37:04.678Z,6.28
2022-11-21T15:39:32.963Z,6.43
2022-11-21T15:42:34.178Z,6.35
2022-11-21T15:45:19.880Z,6.50
2022-11-21T15:47:48.513Z,6.10
2022-11-21T15:50:16.823Z,6.63
2022-11-21T15:52:49.853Z,5.68
2022-11-21T15:55:26.937Z,6.43
2022-11-21T15:57:54.764Z,6.05
2022-11-21T16:00:22.597Z,6.57
2022-11-21T16:02:49.706Z,8.82
2022-11-21T16:05:17.764Z,9.05
2022-11-21T16:07:46.638Z,9.80
2022-11-21T16:10:21.359Z,8.57
2022-11-21T16:12:53.344Z,8.05
2022-11-21T16:15:20.530Z,7.57
2022-11-21T16:17:47.937Z,9.77
2022-11-21T16:20:15.572Z,13.35
2022-11-21T16:22:47.110Z,10.63
2022-11-21T16:25:15.184Z,11.23
2022-11-21T16:27:44.519Z,10.50
2022-11-21T16:30:13.419Z,9.80
2022-11-21T16:32:40.546Z,8.75
2022-11-21T16:35:08.925Z,7.85
2022-11-21T16:37:36.173Z,8.02
2022-11-21T16:40:03.543Z,7.00
2022-11-21T16:42:31.860Z,7.10
2022-11-21T16:44:58.832Z,8.07
2022-11-21T16:47:26.974Z,7.68
2022-11-21T16:49:53.960Z,7.32
2022-11-21T16:52:21.017Z,6.07
2022-11-21T16:54:48.058Z,6.45
2022-11-21T16:57:15.109Z,6.35
2022-11-21T16:59:42.134Z,6.43
2022-11-21T17:02:12.387Z,6.03
2022-11-21T17:04:39.494Z,5.82
2022-11-21T17:07:06.559Z,5.80
2022-11-21T17:09:34.978Z,5.97
2022-11-21T17:12:02.189Z,5.53
2022-11-21T17:14:29.530Z,6.03
2022-11-21T17:16:58.449Z,5.97
2022-11-21T17:19:27.986Z,6.22
2022-11-21T17:21:55.085Z,5.90
2022-11-21T17:24:22.418Z,6.68
2022-11-21T17:26:49.526Z,6.50
2022-11-21T17:29:16.690Z,7.80
2022-11-21T17:31:43.752Z,7.65
2022-11-21T17:34:10.950Z,7.53
2022-11-21T17:36:38.031Z,7.45
2022-11-21T17:39:04.996Z,7.00
2022-11-21T17:41:32.068Z,6.53
2022-11-21T17:43:59.766Z,6.47
2022-11-21T17:46:27.509Z,7.30
2022-11-21T17:48:58.337Z,7.60
2022-11-21T17:51:33.714Z,6.50
2022-11-21T17:54:01.696Z,5.90
2022-11-21T17:56:31.514Z,7.00
2022-11-21T17:58:58.846Z,6.00
2022-11-21T18:01:26.144Z,6.60
2022-11-21T18:04:10.118Z,7.25
2022-11-21T18:06:40.098Z,7.13
2022-11-21T18:09:09.771Z,6.47
2022-11-21T18:11:39.860Z,6.70
2022-11-21T18:14:09.835Z,7.90
2022-11-21T18:16:39.598Z,8.82
2022-11-21T18:19:07.173Z,11.52
2022-11-21T18:21:38.231Z,9.48
2022-11-21T18:24:05.645Z,8.30
2022-11-21T18:26:35.855Z,7.70
2022-11-21T18:31:53.189Z,7.20
2022-11-21T18:34:22.237Z,9.68
2022-11-21T18:36:49.573Z,10.27
2022-11-21T18:39:17.815Z,8.60
2022-11-21T18:41:45.011Z,8.32
2022-11-21T18:44:20.008Z,8.30
2022-11-21T18:46:49.294Z,7.68
2022-11-21T18:49:16.546Z,10.70
2022-11-21T18:51:43.599Z,11.30
2022-11-21T18:54:11.158Z,10.25
2022-11-21T18:56:39.637Z,11.10
2022-11-21T18:59:07.551Z,10.35
2022-11-21T19:01:36.655Z,13.93
2022-11-21T19:04:04.108Z,20.67
2022-11-21T19:06:31.442Z,17.23
2022-11-21T19:08:59.108Z,15.35
2022-11-21T19:11:28.747Z,11.35
2022-11-21T19:13:57.553Z,8.55
2022-11-21T19:16:26.396Z,9.38
2022-11-21T19:21:42.236Z,7.65
2022-11-21T19:24:14.105Z,8.45
2022-11-21T19:26:44.263Z,7.95
2022-11-21T19:29:11.727Z,8.88
2022-11-21T19:31:44.799Z,8.95
2022-11-21T19:34:14.384Z,8.70
2022-11-21T19:36:41.931Z,9.20
2022-11-21T19:39:09.934Z,9.30
2022-11-21T19:41:37.379Z,11.70
2022-11-21T19:44:04.641Z,9.07
2022-11-21T19:46:34.132Z,8.52
2022-11-21T19:49:02.176Z,8.55
2022-11-21T19:51:34.942Z,8.68
2022-11-21T19:54:07.601Z,8.52
2022-11-21T19:56:35.742Z,10.27
2022-11-21T19:59:03.150Z,12.93
2022-11-21T20:01:32.334Z,12.48
2022-11-21T20:04:01.767Z,15.73
2022-11-21T20:06:41.732Z,15.35
2022-11-21T20:09:10.360Z,15.57
2022-11-21T20:11:40.384Z,16.38
2022-11-21T20:14:07.893Z,14.82
2022-11-21T20:16:37.818Z,12.13
2022-11-21T20:19:07.315Z,11.90
2022-11-21T20:21:34.728Z,13.13
2022-11-21T20:24:02.607Z,14.00
2022-11-21T20:26:29.951Z,13.85
2022-11-21T20:28:57.396Z,13.18
2022-11-21T20:31:30.086Z,11.20
2022-11-21T20:34:05.065Z,9.38
2022-11-21T20:36:33.914Z,10.23
2022-11-21T20:39:04.895Z,11.50
2022-11-21T20:41:34.272Z,11.20
2022-11-21T20:47:09.257Z,9.93
2022-11-21T20:49:36.375Z,10.23
2022-11-21T20:54:51.843Z,9.73
2022-11-21T20:57:18.851Z,10.18
2022-11-21T20:59:45.976Z,10.18
2022-11-21T21:02:14.218Z,9.60
2022-11-21T21:04:41.879Z,10.57
2022-11-21T21:07:10.003Z,10.00
2022-11-21T21:09:37.219Z,9.95
2022-11-21T21:12:05.699Z,9.73
2022-11-21T21:14:32.875Z,10.00
2022-11-21T21:17:00.506Z,9.85
2022-11-21T21:19:29.920Z,9.93
2022-11-21T21:21:57.289Z,10.63
2022-11-21T21:24:24.586Z,9.60
2022-11-21T21:26:52.632Z,10.55
2022-11-21T21:29:21.312Z,11.43
2022-11-21T21:31:52.586Z,9.65
2022-11-21T21:34:21.715Z,10.45
2022-11-21T21:36:49.100Z,10.80
2022-11-21T21:39:16.277Z,10.60
2022-11-21T21:41:47.316Z,11.00
2022-11-21T21:44:15.534Z,9.85
2022-11-21T21:46:42.879Z,10.18
2022-11-21T21:49:10.231Z,10.27
2022-11-21T21:51:37.936Z,10.35
2022-11-21T21:54:05.246Z,10.38
2022-11-21T21:56:33.676Z,9.65
2022-11-21T21:59:00.744Z,9.98
2022-11-21T22:01:30.452Z,9.82
2022-11-21T22:04:03.272Z,10.80
2022-11-21T22:06:34.217Z,10.02
2022-11-21T22:09:02.550Z,10.93
2022-11-21T22:11:33.086Z,10.95
2022-11-21T22:14:02.413Z,11.25
2022-11-21T22:16:30.188Z,10.88
2022-11-21T22:18:57.849Z,10.00
2022-11-21T22:21:30.034Z,10.02
2022-11-21T22:26:45.890Z,11.05
2022-11-21T22:29:12.765Z,10.15
2022-11-21T22:31:39.861Z,11.20
2022-11-21T22:34:06.903Z,10.90
2022-11-21T22:36:34.448Z,11.25
2022-11-21T22:39:02.701Z,10.68
2022-11-21T22:41:29.740Z,11.10
2022-11-21T22:43:58.584Z,11.82
2022-11-21T22:46:27.376Z,10.55
2022-11-21T22:48:54.745Z,10.90
2022-11-21T22:51:29.358Z,11.27
2022-11-21T22:53:57.088Z,12.65
2022-11-21T22:56:25.223Z,12.93
2022-11-21T22:58:52.654Z,10.73
2022-11-21T23:01:22.416Z,10.80
2022-11-21T23:03:49.775Z,10.70
2022-11-21T23:06:24.056Z,11.93
2022-11-21T23:08:52.499Z,11.35
2022-11-21T23:11:22.961Z,10.57
2022-11-21T23:13:51.353Z,12.23
2022-11-21T23:16:18.670Z,10.75
2022-11-21T23:18:45.680Z,10.80
2022-11-21T23:21:13.498Z,11.43
2022-11-21T23:23:40.853Z,10.73
2022-11-21T23:26:08.139Z,11.38
2022-11-21T23:28:35.127Z,10.55
2022-11-21T23:31:03.246Z,10.10
2022-11-21T23:33:30.276Z,10.45
2022-11-21T23:35:57.205Z,10.15
2022-11-21T23:38:24.222Z,10.82
2022-11-21T23:40:51.255Z,9.95
2022-11-21T23:43:19.437Z,9.57
2022-11-21T23:45:53.716Z,11.15
2022-11-21T23:48:22.165Z,10.80
2022-11-21T23:50:52.503Z,9.80
2022-11-21T23:53:20.505Z,10.13
2022-11-21T23:55:48.515Z,9.50
2022-11-21T23:58:16.235Z,9.10
